createdAt,value
2022-08-30T00:00:44.045Z,52.50
2022-08-30T00:03:15.145Z,52.50
2022-08-30T00:05:45.148Z,52.60
2022-08-30T00:08:15.538Z,52.60
2022-08-30T00:10:44.887Z,52.70
2022-08-30T00:13:15.369Z,52.70
2022-08-30T00:15:44.816Z,52.70
2022-08-30T00:18:13.414Z,52.80
2022-08-30T00:20:42.131Z,52.80
2022-08-30T00:23:10.529Z,52.80
2022-08-30T00:25:40.741Z,52.90
2022-08-30T00:28:09.770Z,53.00
2022-08-30T00:30:38.814Z,53.00
2022-08-30T00:33:07.451Z,53.00
2022-08-30T00:35:36.293Z,53.00
2022-08-30T00:38:04.695Z,53.60
2022-08-30T00:40:33.433Z,53.00
2022-08-30T00:43:06.298Z,53.00
2022-08-30T00:45:38.191Z,53.10
2022-08-30T00:48:07.847Z,53.10
2022-08-30T00:50:43.348Z,53.10
2022-08-30T00:53:16.788Z,53.10
2022-08-30T00:55:46.063Z,53.10
2022-08-30T00:58:21.822Z,53.10
2022-08-30T01:00:53.295Z,53.10
2022-08-30T01:03:22.489Z,53.60
2022-08-30T01:05:52.636Z,53.00
2022-08-30T01:08:22.399Z,53.00
2022-08-30T01:10:52.652Z,53.10
2022-08-30T01:13:23.490Z,53.20
2022-08-30T01:15:52.836Z,53.20
2022-08-30T01:18:23.181Z,53.30
2022-08-30T01:21:02.709Z,53.30
2022-08-30T01:23:35.055Z,53.40
2022-08-30T01:26:06.292Z,53.40
2022-08-30T01:28:35.810Z,53.50
2022-08-30T01:31:04.756Z,53.50
2022-08-30T01:33:33.464Z,53.50
2022-08-30T01:36:06.704Z,53.50
2022-08-30T01:38:39.979Z,53.50
2022-08-30T01:41:13.665Z,53.70
2022-08-30T01:43:42.811Z,53.50
2022-08-30T01:46:12.112Z,53.60
2022-08-30T01:48:42.293Z,53.70
2022-08-30T01:51:18.820Z,53.60
2022-08-30T01:53:48.720Z,54.20
2022-08-30T01:56:17.167Z,53.70
2022-08-30T01:58:46.882Z,53.70
2022-08-30T02:01:18.022Z,53.70
2022-08-30T02:03:47.514Z,53.60
2022-08-30T02:06:19.149Z,53.60
2022-08-30T02:08:49.615Z,54.20
2022-08-30T02:11:19.723Z,53.70
2022-08-30T02:13:48.322Z,53.70
2022-08-30T02:16:23.011Z,53.70
2022-08-30T02:18:52.625Z,53.70
2022-08-30T02:21:21.769Z,53.70
2022-08-30T02:23:51.648Z,53.70
2022-08-30T02:26:20.813Z,53.70
2022-08-30T02:28:50.474Z,53.70
2022-08-30T02:31:20.660Z,53.70
2022-08-30T02:33:52.127Z,53.70
2022-08-30T02:36:22.331Z,54.30
2022-08-30T02:38:53.647Z,53.80
2022-08-30T02:41:23.601Z,53.90
2022-08-30T02:43:58.382Z,53.80
2022-08-30T02:46:27.149Z,53.90
2022-08-30T02:49:13.212Z,53.90
2022-08-30T02:51:50.587Z,54.00
2022-08-30T02:54:20.761Z,53.90
2022-08-30T02:56:49.718Z,53.90
2022-08-30T02:59:20.046Z,53.90
2022-08-30T03:01:49.078Z,53.90
2022-08-30T03:04:17.522Z,53.90
2022-08-30T03:06:46.136Z,53.90
2022-08-30T03:09:14.515Z,53.90
2022-08-30T03:11:44.908Z,53.90
2022-08-30T03:14:13.215Z,54.00
2022-08-30T03:16:41.616Z,54.00
2022-08-30T03:19:09.978Z,54.00
2022-08-30T03:21:39.181Z,54.00
2022-08-30T03:24:08.450Z,54.00
2022-08-30T03:26:36.873Z,54.00
2022-08-30T03:29:06.994Z,54.00
2022-08-30T03:31:40.674Z,54.00
2022-08-30T03:34:22.719Z,54.10
2022-08-30T03:36:51.507Z,54.10
2022-08-30T03:39:20.016Z,54.10
2022-08-30T03:41:48.637Z,54.10
2022-08-30T03:44:18.460Z,54.20
2022-08-30T03:46:46.789Z,54.20
2022-08-30T03:49:15.383Z,54.20
2022-08-30T03:51:44.224Z,54.30
2022-08-30T03:54:12.872Z,54.30
2022-08-30T03:56:41.892Z,54.30
2022-08-30T03:59:10.744Z,54.30
2022-08-30T04:01:42.082Z,54.30
2022-08-30T04:04:10.575Z,54.30
2022-08-30T04:06:39.193Z,54.30
2022-08-30T04:09:08.313Z,54.40
2022-08-30T04:11:36.736Z,54.50
2022-08-30T04:14:05.214Z,54.40
2022-08-30T04:16:33.702Z,54.50
2022-08-30T04:19:03.578Z,54.50
2022-08-30T04:21:32.191Z,54.60
2022-08-30T04:24:03.939Z,54.60
2022-08-30T04:26:32.283Z,54.60
2022-08-30T04:29:00.588Z,54.70
2022-08-30T04:31:29.000Z,54.60
2022-08-30T04:33:57.293Z,54.70
2022-08-30T04:36:26.976Z,54.70
2022-08-30T04:38:55.419Z,55.30
2022-08-30T04:41:24.532Z,54.70
2022-08-30T04:43:52.939Z,54.80
2022-08-30T04:46:21.759Z,54.80
2022-08-30T04:48:50.807Z,54.80
2022-08-30T04:51:19.819Z,54.70
2022-08-30T04:53:49.553Z,54.80
2022-08-30T04:56:22.404Z,54.90
2022-08-30T04:58:55.149Z,55.00
2022-08-30T05:01:26.995Z,55.10
2022-08-30T05:03:56.861Z,55.20
2022-08-30T05:06:27.526Z,55.30
2022-08-30T05:08:57.455Z,55.30
2022-08-30T05:11:25.824Z,55.40
2022-08-30T05:13:54.205Z,55.30
2022-08-30T05:16:22.701Z,55.40
2022-08-30T05:18:52.862Z,55.50
2022-08-30T05:21:23.887Z,55.60
2022-08-30T05:23:57.094Z,55.60
2022-08-30T05:26:29.027Z,55.60
2022-08-30T05:28:57.823Z,55.70
2022-08-30T05:31:30.339Z,55.70
2022-08-30T05:33:59.698Z,55.80
2022-08-30T05:36:32.295Z,55.80
2022-08-30T05:39:02.273Z,55.90
2022-08-30T05:41:35.429Z,55.90
2022-08-30T05:44:08.813Z,56.00
2022-08-30T05:46:39.593Z,56.00
2022-08-30T05:49:09.734Z,56.10
2022-08-30T05:51:41.131Z,56.30
2022-08-30T05:54:15.424Z,56.20
2022-08-30T05:56:47.064Z,56.20
2022-08-30T05:59:16.626Z,56.20
2022-08-30T06:01:47.861Z,56.20
2022-08-30T06:04:16.975Z,56.20
2022-08-30T06:06:46.193Z,56.10
2022-08-30T06:09:16.844Z,56.10
2022-08-30T06:11:46.219Z,56.10
2022-08-30T06:14:15.658Z,56.10
2022-08-30T06:16:45.900Z,56.10
2022-08-30T06:19:16.182Z,56.20
2022-08-30T06:21:45.775Z,56.10
2022-08-30T06:24:15.836Z,56.10
2022-08-30T06:26:47.488Z,56.10
2022-08-30T06:29:20.980Z,56.20
2022-08-30T06:31:50.238Z,56.20
2022-08-30T06:34:19.052Z,56.10
2022-08-30T06:36:47.439Z,56.10
2022-08-30T06:39:17.146Z,56.10
2022-08-30T06:41:45.480Z,56.20
2022-08-30T06:44:25.697Z,56.20
2022-08-30T06:46:54.130Z,56.20
2022-08-30T06:49:22.579Z,56.20
2022-08-30T06:51:51.515Z,56.30
2022-08-30T06:54:21.269Z,56.40
2022-08-30T06:56:58.113Z,56.50
2022-08-30T06:59:28.048Z,56.60
2022-08-30T07:01:56.586Z,56.60
2022-08-30T07:04:25.996Z,56.80
2022-08-30T07:06:54.420Z,56.90
2022-08-30T07:09:24.149Z,57.00
2022-08-30T07:11:54.179Z,57.30
2022-08-30T07:14:23.279Z,57.30
2022-08-30T07:16:52.285Z,57.40
2022-08-30T07:19:21.037Z,57.40
2022-08-30T07:21:50.774Z,57.50
2022-08-30T07:24:21.611Z,57.50
2022-08-30T07:26:52.548Z,57.50
2022-08-30T07:29:21.558Z,57.70
2022-08-30T07:31:50.129Z,57.60
2022-08-30T07:34:20.553Z,57.50
2022-08-30T07:36:51.044Z,57.60
2022-08-30T07:39:19.757Z,57.70
2022-08-30T07:41:50.890Z,57.60
2022-08-30T07:44:19.664Z,57.70
2022-08-30T07:46:51.668Z,57.70
2022-08-30T07:49:20.634Z,57.50
2022-08-30T07:51:49.099Z,57.50
2022-08-30T07:54:17.431Z,57.50
2022-08-30T07:56:45.900Z,57.50
2022-08-30T07:59:15.594Z,57.40
2022-08-30T08:01:44.002Z,57.40
2022-08-30T08:04:12.512Z,57.30
2022-08-30T08:06:41.894Z,57.30
2022-08-30T08:09:10.521Z,57.20
2022-08-30T08:11:39.867Z,57.10
2022-08-30T08:14:08.854Z,57.10
2022-08-30T08:16:39.392Z,57.70
2022-08-30T08:19:09.292Z,57.10
2022-08-30T08:21:38.423Z,57.00
2022-08-30T08:24:07.924Z,56.90
2022-08-30T08:26:37.833Z,57.00
2022-08-30T08:29:08.279Z,56.90
2022-08-30T08:31:38.757Z,56.80
2022-08-30T08:34:07.305Z,56.80
2022-08-30T08:36:36.676Z,56.80
2022-08-30T08:39:07.887Z,56.80
2022-08-30T08:41:52.061Z,56.80
2022-08-30T08:44:37.275Z,56.80
2022-08-30T08:47:16.369Z,56.70
2022-08-30T08:49:50.572Z,56.70
2022-08-30T08:52:43.363Z,56.60
2022-08-30T08:55:16.317Z,56.60
2022-08-30T08:57:44.789Z,56.40
2022-08-30T09:00:33.837Z,56.30
2022-08-30T09:03:05.356Z,56.10
2022-08-30T09:05:40.985Z,56.00
2022-08-30T09:08:15.125Z,55.90
2022-08-30T09:10:52.087Z,55.90
2022-08-30T09:13:22.824Z,55.60
2022-08-30T09:15:54.994Z,55.50
2022-08-30T09:18:45.349Z,55.40
2022-08-30T09:21:16.074Z,55.00
2022-08-30T09:23:56.020Z,55.20
2022-08-30T09:26:31.955Z,55.10
2022-08-30T09:29:01.086Z,54.90
2022-08-30T09:31:32.237Z,55.10
2022-08-30T09:34:06.561Z,54.90
2022-08-30T09:36:41.740Z,54.70
2022-08-30T09:39:20.636Z,54.70
2022-08-30T09:41:50.946Z,54.30
2022-08-30T09:44:22.560Z,54.30
2022-08-30T09:46:53.753Z,54.30
2022-08-30T09:49:38.537Z,54.20
2022-08-30T09:52:34.070Z,54.10
2022-08-30T09:55:19.751Z,54.00
2022-08-30T09:58:00.656Z,54.00
2022-08-30T10:00:32.668Z,53.80
2022-08-30T10:03:35.863Z,53.80
2022-08-30T10:06:23.102Z,53.60
2022-08-30T10:09:02.901Z,53.40
2022-08-30T10:11:40.775Z,53.60
2022-08-30T10:14:40.267Z,53.60
2022-08-30T10:17:21.103Z,53.40
2022-08-30T10:20:11.652Z,53.30
2022-08-30T10:22:46.656Z,52.80
2022-08-30T10:25:20.375Z,53.00
2022-08-30T10:27:55.882Z,52.60
2022-08-30T10:30:24.542Z,52.20
2022-08-30T10:33:01.685Z,52.60
2022-08-30T10:35:38.764Z,52.70
2022-08-30T10:38:17.443Z,52.60
2022-08-30T10:41:11.732Z,52.00
2022-08-30T10:43:52.781Z,52.40
2022-08-30T10:46:31.652Z,51.30
2022-08-30T10:49:03.197Z,51.60
2022-08-30T10:51:38.030Z,51.90
2022-08-30T10:54:18.590Z,51.80
2022-08-30T10:56:52.491Z,51.30
2022-08-30T10:59:22.123Z,51.10
2022-08-30T11:02:20.057Z,51.00
2022-08-30T11:05:25.054Z,50.20
2022-08-30T11:08:08.231Z,50.00
2022-08-30T11:11:03.745Z,50.00
2022-08-30T11:13:34.160Z,49.70
2022-08-30T11:16:06.352Z,49.90
2022-08-30T11:18:44.708Z,49.70
2022-08-30T11:21:28.160Z,49.60
2022-08-30T11:24:10.789Z,49.40
2022-08-30T11:27:02.464Z,49.90
2022-08-30T11:29:39.349Z,49.30
2022-08-30T11:33:00.014Z,50.00
2022-08-30T11:35:48.098Z,49.30
2022-08-30T11:38:59.625Z,47.80
2022-08-30T11:41:41.433Z,49.10
2022-08-30T11:44:29.389Z,48.70
2022-08-30T11:46:59.275Z,48.30
2022-08-30T11:49:55.404Z,48.40
2022-08-30T11:52:42.012Z,47.50
2022-08-30T11:55:50.021Z,47.50
2022-08-30T11:58:34.363Z,47.40
2022-08-30T12:01:49.867Z,47.60
2022-08-30T12:04:37.413Z,47.40
2022-08-30T12:07:08.615Z,47.20
2022-08-30T12:10:06.961Z,47.40
2022-08-30T12:13:01.475Z,46.70
2022-08-30T12:15:57.143Z,46.60
2022-08-30T12:18:43.199Z,46.50
2022-08-30T12:21:29.506Z,46.60
2022-08-30T12:24:07.732Z,46.40
2022-08-30T12:26:39.511Z,46.60
2022-08-30T12:29:18.987Z,46.70
2022-08-30T12:31:52.562Z,46.00
2022-08-30T12:34:27.339Z,46.10
2022-08-30T12:37:03.060Z,45.90
2022-08-30T12:39:37.319Z,45.90
2022-08-30T12:42:20.703Z,45.90
2022-08-30T12:44:51.026Z,44.40
2022-08-30T12:47:25.605Z,45.40
2022-08-30T12:49:57.675Z,45.10
2022-08-30T12:52:33.981Z,44.70
2022-08-30T12:55:17.291Z,44.70
2022-08-30T12:58:01.354Z,44.80
2022-08-30T13:00:33.062Z,44.50
2022-08-30T13:03:25.234Z,44.90
2022-08-30T13:05:57.516Z,44.70
2022-08-30T13:08:36.783Z,44.70
2022-08-30T13:11:10.227Z,44.70
2022-08-30T13:13:44.486Z,44.40
2022-08-30T13:16:26.359Z,44.50
2022-08-30T13:18:57.271Z,43.80
2022-08-30T13:21:30.503Z,44.40
2022-08-30T13:24:01.871Z,44.30
2022-08-30T13:26:34.299Z,44.50
2022-08-30T13:29:10.272Z,44.40
2022-08-30T13:31:39.054Z,44.50
2022-08-30T13:34:07.520Z,44.70
2022-08-30T13:36:49.028Z,44.80
2022-08-30T13:39:18.115Z,44.40
2022-08-30T13:41:50.125Z,44.70
2022-08-30T13:44:20.126Z,44.70
2022-08-30T13:46:55.408Z,44.60
2022-08-30T13:49:43.773Z,44.50
2022-08-30T13:52:21.443Z,44.50
2022-08-30T13:54:51.608Z,44.40
2022-08-30T14:00:17.942Z,44.70
2022-08-30T14:02:54.087Z,44.50
2022-08-30T14:05:47.778Z,44.80
2022-08-30T14:11:06.435Z,44.60
2022-08-30T14:13:35.016Z,44.60
2022-08-30T14:18:57.377Z,44.70
2022-08-30T14:21:26.059Z,44.90
2022-08-30T14:23:57.688Z,44.90
2022-08-30T14:26:32.511Z,45.10
2022-08-30T14:29:03.011Z,44.90
2022-08-30T14:31:32.817Z,45.10
2022-08-30T14:34:03.337Z,45.00
2022-08-30T14:36:33.024Z,44.60
2022-08-30T14:39:08.457Z,44.60
2022-08-30T14:41:44.322Z,44.20
2022-08-30T14:44:13.640Z,44.00
2022-08-30T14:46:42.808Z,44.40
2022-08-30T14:49:12.218Z,44.40
2022-08-30T14:51:41.253Z,44.40
2022-08-30T14:54:11.722Z,44.20
2022-08-30T14:56:41.497Z,44.20
2022-08-30T14:59:10.411Z,44.20
2022-08-30T15:01:43.062Z,44.30
2022-08-30T15:04:13.059Z,44.30
2022-08-30T15:06:45.684Z,44.20
2022-08-30T15:09:23.226Z,44.10
2022-08-30T15:11:53.421Z,44.20
2022-08-30T15:14:23.625Z,44.40
2022-08-30T15:16:55.076Z,44.50
2022-08-30T15:19:23.585Z,44.30
2022-08-30T15:21:52.707Z,44.50
2022-08-30T15:24:29.808Z,44.60
2022-08-30T15:26:59.895Z,44.60
2022-08-30T15:29:30.685Z,44.60
2022-08-30T15:32:03.604Z,44.60
2022-08-30T15:34:34.589Z,44.50
2022-08-30T15:37:03.986Z,44.60
2022-08-30T15:39:33.923Z,44.70
2022-08-30T15:42:02.318Z,44.50
2022-08-30T15:44:31.769Z,44.50
2022-08-30T15:47:00.508Z,44.60
2022-08-30T15:49:29.957Z,44.50
2022-08-30T15:52:02.322Z,44.50
2022-08-30T15:54:31.576Z,44.40
2022-08-30T15:57:01.482Z,45.20
2022-08-30T15:59:32.508Z,44.50
2022-08-30T16:02:01.065Z,44.60
2022-08-30T16:04:30.000Z,44.40
2022-08-30T16:06:58.299Z,44.40
2022-08-30T16:09:30.029Z,44.40
2022-08-30T16:12:02.823Z,44.50
2022-08-30T16:14:33.699Z,44.60
2022-08-30T16:17:02.761Z,44.60
2022-08-30T16:19:31.421Z,44.70
2022-08-30T16:22:00.348Z,44.70
2022-08-30T16:24:28.749Z,44.80
2022-08-30T16:26:57.135Z,44.80
2022-08-30T16:29:27.059Z,44.80
2022-08-30T16:31:56.693Z,44.80
2022-08-30T16:34:26.076Z,44.80
2022-08-30T16:36:54.472Z,44.90
2022-08-30T16:39:22.792Z,44.80
2022-08-30T16:41:51.129Z,44.80
2022-08-30T16:44:19.643Z,45.00
2022-08-30T16:46:53.102Z,45.10
2022-08-30T16:49:24.854Z,45.00
2022-08-30T16:51:54.565Z,44.90
2022-08-30T16:54:23.368Z,45.00
2022-08-30T16:56:52.345Z,45.00
2022-08-30T16:59:46.201Z,45.00
2022-08-30T17:02:15.998Z,44.90
2022-08-30T17:04:44.324Z,45.00
2022-08-30T17:07:13.808Z,45.10
2022-08-30T17:09:42.991Z,45.00
2022-08-30T17:12:11.391Z,45.10
2022-08-30T17:14:39.679Z,45.00
2022-08-30T17:17:09.137Z,45.20
2022-08-30T17:19:43.085Z,45.20
2022-08-30T17:22:12.416Z,45.30
2022-08-30T17:24:42.255Z,45.30
2022-08-30T17:27:12.019Z,45.30
2022-08-30T17:29:40.601Z,45.30
2022-08-30T17:32:08.955Z,45.40
2022-08-30T17:34:38.789Z,45.30
2022-08-30T17:37:08.231Z,45.50
2022-08-30T17:39:37.967Z,45.40
2022-08-30T17:42:07.849Z,45.50
2022-08-30T17:44:38.057Z,45.50
2022-08-30T17:47:11.081Z,45.60
2022-08-30T17:49:40.890Z,45.70
2022-08-30T17:52:11.446Z,45.70
2022-08-30T17:54:40.574Z,45.80
2022-08-30T17:57:11.461Z,45.80
2022-08-30T17:59:41.284Z,45.90
2022-08-30T18:02:11.120Z,46.00
2022-08-30T18:04:42.186Z,46.10
2022-08-30T18:07:12.077Z,46.20
2022-08-30T18:09:41.519Z,46.20
2022-08-30T18:12:10.880Z,46.30
2022-08-30T18:14:40.375Z,46.30
2022-08-30T18:17:09.171Z,46.40
2022-08-30T18:19:46.425Z,46.50
2022-08-30T18:22:17.671Z,46.60
2022-08-30T18:24:47.871Z,46.70
2022-08-30T18:27:16.552Z,46.70
2022-08-30T18:29:44.896Z,46.70
2022-08-30T18:32:13.198Z,46.80
2022-08-30T18:34:42.821Z,46.90
2022-08-30T18:37:12.428Z,46.90
2022-08-30T18:39:42.910Z,47.10
2022-08-30T18:42:11.693Z,47.10
2022-08-30T18:44:40.429Z,47.70
2022-08-30T18:47:12.936Z,47.20
2022-08-30T18:49:41.426Z,47.30
2022-08-30T18:52:11.170Z,47.30
2022-08-30T18:54:44.181Z,47.40
2022-08-30T18:57:15.524Z,47.50
2022-08-30T18:59:43.989Z,47.50
2022-08-30T19:02:17.503Z,47.50
2022-08-30T19:04:47.164Z,47.50
2022-08-30T19:07:18.754Z,47.50
2022-08-30T19:09:49.419Z,47.60
2022-08-30T19:12:19.641Z,47.60
2022-08-30T19:14:49.465Z,47.60
2022-08-30T19:17:17.829Z,47.70
2022-08-30T19:19:49.321Z,47.80
2022-08-30T19:22:22.322Z,47.80
2022-08-30T19:24:53.649Z,47.90
2022-08-30T19:27:37.141Z,47.90
2022-08-30T19:30:08.770Z,47.90
2022-08-30T19:32:37.500Z,48.00
2022-08-30T19:35:06.673Z,48.00
2022-08-30T19:37:35.301Z,48.00
2022-08-30T19:40:10.124Z,48.00
2022-08-30T19:42:45.795Z,48.10
2022-08-30T19:45:18.114Z,48.10
2022-08-30T19:47:47.034Z,48.30
2022-08-30T19:50:16.715Z,48.30
2022-08-30T19:52:52.731Z,48.50
2022-08-30T19:55:28.510Z,48.60
2022-08-30T19:57:58.695Z,48.70
2022-08-30T20:00:27.460Z,48.70
2022-08-30T20:02:59.982Z,48.80
2022-08-30T20:05:30.217Z,49.00
2022-08-30T20:07:59.102Z,48.90
2022-08-30T20:10:28.860Z,49.00
2022-08-30T20:12:57.393Z,49.10
2022-08-30T20:15:26.353Z,49.00
2022-08-30T20:18:13.413Z,49.10
2022-08-30T20:20:49.545Z,49.10
2022-08-30T20:23:21.453Z,49.20
2022-08-30T20:25:53.170Z,49.20
2022-08-30T20:28:21.930Z,49.20
2022-08-30T20:30:51.310Z,49.20
2022-08-30T20:33:20.885Z,49.20
2022-08-30T20:35:50.010Z,49.30
2022-08-30T20:38:22.187Z,49.30
2022-08-30T20:40:56.576Z,49.50
2022-08-30T20:43:29.303Z,49.50
2022-08-30T20:45:58.486Z,49.50
2022-08-30T20:48:28.807Z,49.50
2022-08-30T20:50:57.508Z,49.50
2022-08-30T20:53:26.248Z,49.60
2022-08-30T20:55:56.010Z,49.60
2022-08-30T20:58:25.056Z,49.60
2022-08-30T21:00:55.601Z,49.60
2022-08-30T21:03:25.949Z,49.70
2022-08-30T21:05:56.911Z,49.80
2022-08-30T21:08:26.518Z,49.80
2022-08-30T21:10:56.932Z,49.80
2022-08-30T21:13:25.390Z,49.90
2022-08-30T21:15:57.609Z,49.90
2022-08-30T21:18:32.780Z,49.90
2022-08-30T21:21:07.999Z,50.00
2022-08-30T21:23:37.649Z,50.10
2022-08-30T21:26:08.943Z,50.00
2022-08-30T21:28:37.450Z,50.10
2022-08-30T21:31:12.714Z,50.20
2022-08-30T21:33:42.365Z,50.30
2022-08-30T21:36:29.295Z,50.30
2022-08-30T21:39:00.893Z,50.30
2022-08-30T21:41:31.937Z,50.40
2022-08-30T21:44:02.625Z,50.60
2022-08-30T21:46:32.682Z,50.50
2022-08-30T21:49:03.759Z,50.50
2022-08-30T21:51:36.227Z,50.60
2022-08-30T21:54:07.241Z,50.70
2022-08-30T21:56:38.521Z,50.60
2022-08-30T21:59:08.576Z,50.80
2022-08-30T22:01:38.282Z,50.70
2022-08-30T22:04:10.024Z,50.70
2022-08-30T22:06:40.900Z,50.80
2022-08-30T22:09:13.918Z,50.80
2022-08-30T22:11:45.500Z,50.90
2022-08-30T22:14:15.910Z,50.90
2022-08-30T22:16:46.346Z,50.90
2022-08-30T22:19:16.937Z,50.90
2022-08-30T22:21:48.410Z,50.90
2022-08-30T22:24:17.176Z,50.90
2022-08-30T22:26:47.516Z,50.90
2022-08-30T22:29:16.362Z,51.00
2022-08-30T22:31:44.815Z,51.00
2022-08-30T22:34:13.524Z,51.10
2022-08-30T22:36:41.863Z,51.00
2022-08-30T22:39:10.826Z,51.10
2022-08-30T22:41:41.432Z,51.10
2022-08-30T22:44:12.020Z,51.10
2022-08-30T22:46:40.675Z,51.30
2022-08-30T22:49:11.089Z,51.20
2022-08-30T22:51:40.726Z,51.20
2022-08-30T22:54:10.691Z,51.30
2022-08-30T22:56:40.645Z,51.20
2022-08-30T22:59:10.434Z,51.30
2022-08-30T23:01:43.098Z,51.30
2022-08-30T23:04:13.174Z,51.40
2022-08-30T23:06:49.822Z,51.50
2022-08-30T23:09:18.708Z,51.50
2022-08-30T23:11:47.132Z,51.50
2022-08-30T23:14:16.804Z,51.50
2022-08-30T23:16:45.270Z,52.10
2022-08-30T23:19:14.075Z,51.50
2022-08-30T23:21:42.445Z,51.60
2022-08-30T23:24:28.531Z,51.60
2022-08-30T23:27:14.501Z,51.60
2022-08-30T23:30:01.650Z,51.60
2022-08-30T23:32:47.719Z,51.60
2022-08-30T23:35:33.569Z,51.60
2022-08-30T23:38:23.582Z,51.70
2022-08-30T23:41:09.687Z,51.80
2022-08-30T23:43:56.451Z,51.70
2022-08-30T23:46:43.766Z,51.80
2022-08-30T23:49:29.751Z,51.90
2022-08-30T23:52:15.951Z,51.90
2022-08-30T23:55:01.900Z,51.90
2022-08-30T23:57:47.992Z,51.90
